Time;durP1;ratioP1;P1;durP2;ratioP2;P2;SDS_P1;SDS_P2;PMS_P1;PMS_P2;Temp;Humidity;BMP_temperature;BMP_pressure;BME280_temperature;BME280_humidity;BME280_pressure;Samples;Min_cycle;Max_cycle;Signal;HPM_P1;HPM_P2
2022/06/12 00:00:28;;;;;;;21.48;9.20;;;17.30;99.90;;;;;;5079962;28;20048;-75
2022/06/12 00:02:56;;;;;;;19.10;8.98;;;17.30;99.90;;;;;;5070957;28;20048;-75
2022/06/12 00:05:26;;;;;;;30.42;8.95;;;17.20;99.90;;;;;;5072600;28;20123;-75
2022/06/12 00:07:53;;;;;;;15.73;9.10;;;17.20;99.90;;;;;;5090134;28;20051;-76
2022/06/12 00:10:21;;;;;;;22.13;9.20;;;17.10;99.90;;;;;;5085880;28;20048;-76
2022/06/12 00:12:50;;;;;;;13.25;8.50;;;17.00;99.90;;;;;;5086413;28;20052;-76
2022/06/12 00:15:21;;;;;;;16.17;8.65;;;17.10;99.90;;;;;;5085547;28;20048;-76
2022/06/12 00:17:50;;;;;;;25.33;9.82;;;17.10;99.90;;;;;;5092672;28;20044;-75
2022/06/12 00:20:19;;;;;;;15.35;8.57;;;17.00;99.90;;;;;;5089100;28;20521;-76
2022/06/12 00:22:47;;;;;;;15.75;9.23;;;17.00;99.90;;;;;;5060051;28;20075;-75
2022/06/12 00:25:18;;;;;;;22.52;9.45;;;17.00;99.90;;;;;;5070585;28;20044;-74
2022/06/12 00:27:46;;;;;;;21.70;9.35;;;16.90;99.90;;;;;;5092689;28;20052;-75
2022/06/12 00:30:16;;;;;;;27.90;10.35;;;16.90;99.90;;;;;;5091918;28;20130;-75
2022/06/12 00:32:44;;;;;;;19.08;9.55;;;16.80;99.90;;;;;;5089563;28;20423;-76
2022/06/12 00:35:13;;;;;;;23.50;10.38;;;16.80;99.90;;;;;;5076360;28;20072;-75
2022/06/12 00:37:40;;;;;;;19.48;9.30;;;16.80;99.90;;;;;;5084225;28;20052;-75
2022/06/12 00:40:08;;;;;;;25.60;9.93;;;16.80;99.90;;;;;;5071925;28;20120;-75
2022/06/12 00:42:38;;;;;;;17.85;10.10;;;16.80;99.90;;;;;;5082962;28;20466;-75
2022/06/12 00:45:30;;;;;;;18.77;9.40;;;16.80;99.90;;;;;;5072082;28;20605;-76
2022/06/12 00:47:58;;;;;;;25.80;9.90;;;16.80;99.90;;;;;;5070626;28;20068;-75
2022/06/12 00:50:27;;;;;;;19.90;9.57;;;16.80;99.90;;;;;;5082948;28;20051;-75
2022/06/12 00:52:56;;;;;;;22.50;10.27;;;16.80;99.90;;;;;;5078563;28;20523;-75
2022/06/12 00:55:30;;;;;;;23.38;10.07;;;16.70;99.90;;;;;;5086293;28;20142;-75
2022/06/12 00:58:03;;;;;;;18.27;9.93;;;16.80;99.90;;;;;;5071961;28;20496;-75
2022/06/12 01:00:32;;;;;;;19.27;9.57;;;16.70;99.90;;;;;;5077450;28;20066;-75
2022/06/12 01:03:00;;;;;;;22.75;10.73;;;16.70;99.90;;;;;;5090808;28;20429;-75
2022/06/12 01:08:17;;;;;;;20.85;10.02;;;16.60;99.90;;;;;;5070566;28;20067;-75
2022/06/12 01:10:49;;;;;;;17.95;10.07;;;16.60;99.90;;;;;;5084529;28;20466;-76
2022/06/12 01:13:19;;;;;;;16.67;9.70;;;16.60;99.90;;;;;;5080139;28;20052;-76
2022/06/12 01:15:51;;;;;;;18.63;10.27;;;16.60;99.90;;;;;;5072928;28;20147;-76
2022/06/12 01:18:22;;;;;;;17.37;10.27;;;16.60;99.90;;;;;;5067415;28;20041;-76
2022/06/12 01:21:06;;;;;;;14.05;10.32;;;16.60;99.90;;;;;;5081249;28;20053;-76
2022/06/12 01:23:53;;;;;;;17.95;10.20;;;16.60;99.90;;;;;;5068929;28;20140;-76
2022/06/12 01:26:36;;;;;;;18.52;9.38;;;16.60;99.90;;;;;;5068417;28;20118;-76
2022/06/12 01:29:08;;;;;;;;;;;16.50;99.90;;;;;;5079791;28;20579;-76
2022/06/12 01:31:45;;;;;;;17.83;9.55;;;16.50;99.90;;;;;;5086268;28;19924;-75
2022/06/12 01:34:33;;;;;;;16.75;10.32;;;16.50;99.90;;;;;;5089643;28;20056;-76
2022/06/12 01:37:19;;;;;;;15.65;11.02;;;16.50;99.90;;;;;;5074049;28;20056;-76
2022/06/12 01:39:59;;;;;;;19.33;10.82;;;16.50;99.90;;;;;;5086025;28;20054;-76
2022/06/12 01:42:34;;;;;;;19.27;10.38;;;16.50;99.90;;;;;;5063321;28;20143;-76
2022/06/12 01:45:13;;;;;;;20.70;10.52;;;16.50;99.90;;;;;;5070377;28;20457;-75
2022/06/12 01:47:50;;;;;;;20.58;10.68;;;16.50;99.90;;;;;;5075332;28;20421;-76
2022/06/12 01:50:23;;;;;;;24.52;11.32;;;16.60;99.90;;;;;;5086042;28;20048;-76
2022/06/12 01:53:00;;;;;;;22.02;10.55;;;16.70;99.90;;;;;;5087700;28;20048;-76
2022/06/12 01:55:41;;;;;;;20.48;11.23;;;16.60;99.90;;;;;;5078166;28;20052;-75
2022/06/12 01:58:14;;;;;;;21.20;10.85;;;16.70;99.90;;;;;;5069145;28;20044;-75
2022/06/12 02:00:50;;;;;;;18.10;10.73;;;16.70;99.90;;;;;;5068640;28;20515;-75
2022/06/12 02:03:25;;;;;;;20.30;10.85;;;16.80;99.90;;;;;;5071497;28;20049;-76
2022/06/12 02:06:05;;;;;;;18.63;10.55;;;16.90;99.90;;;;;;5060430;28;20044;-75
2022/06/12 02:08:37;;;;;;;14.18;10.50;;;16.90;99.90;;;;;;5083498;28;20133;-75
2022/06/12 02:13:56;;;;;;;22.08;13.68;;;16.90;99.90;;;;;;5072703;28;20056;-75
2022/06/12 02:16:31;;;;;;;20.08;11.43;;;16.90;99.90;;;;;;5073840;28;20042;-76
2022/06/12 02:19:05;;;;;;;22.60;10.07;;;16.90;99.90;;;;;;5085541;28;20052;-76
2022/06/12 02:21:38;;;;;;;23.25;11.52;;;16.90;99.90;;;;;;5068709;28;20427;-75
2022/06/12 02:24:09;;;;;;;17.67;11.20;;;16.90;99.90;;;;;;5070431;28;20044;-76
2022/06/12 02:26:40;;;;;;;20.33;11.55;;;16.90;99.90;;;;;;5074523;28;20056;-75
2022/06/12 02:29:14;;;;;;;19.63;11.65;;;16.90;99.90;;;;;;5053571;28;20472;-76
2022/06/12 02:31:47;;;;;;;16.52;10.98;;;16.80;99.90;;;;;;5076999;28;20048;-76
2022/06/12 02:34:22;;;;;;;21.17;11.90;;;16.80;99.90;;;;;;5077266;28;20059;-76
2022/06/12 02:36:52;;;;;;;18.58;11.35;;;16.80;99.90;;;;;;5077057;28;20078;-76
2022/06/12 02:39:24;;;;;;;23.38;11.65;;;16.90;99.90;;;;;;5072967;28;20056;-76
2022/06/12 02:41:56;;;;;;;19.50;11.48;;;16.90;99.90;;;;;;5087032;28;20048;-76
2022/06/12 02:44:28;;;;;;;15.73;12.15;;;16.90;99.90;;;;;;5085553;28;20040;-75
2022/06/12 02:47:01;;;;;;;17.30;11.30;;;16.90;99.90;;;;;;5081759;28;20045;-76
2022/06/12 02:49:28;;;;;;;;;;;16.90;99.90;;;;;;5077842;28;20045;-75
2022/06/12 02:52:01;;;;;;;16.75;10.75;;;16.90;99.90;;;;;;5064082;28;19931;-76
2022/06/12 02:54:34;;;;;;;25.63;12.80;;;16.90;99.90;;;;;;5079165;28;20056;-75
2022/06/12 02:57:11;;;;;;;23.50;11.82;;;17.00;99.90;;;;;;5073092;28;20048;-76
2022/06/12 02:59:50;;;;;;;23.35;10.90;;;17.10;99.90;;;;;;5085135;28;20385;-75
2022/06/12 03:02:25;;;;;;;23.00;12.65;;;17.10;99.90;;;;;;5082542;28;20040;-76
2022/06/12 03:04:59;;;;;;;22.05;11.75;;;17.10;99.90;;;;;;5088500;28;20044;-75
2022/06/12 03:07:27;;;;;;;32.28;13.70;;;17.10;99.90;;;;;;5091272;28;20561;-75
2022/06/12 03:09:55;;;;;;;24.25;12.85;;;17.20;99.90;;;;;;5081075;28;20428;-75
2022/06/12 03:12:22;;;;;;;29.60;13.63;;;17.30;99.90;;;;;;5089914;28;20052;-76
2022/06/12 03:14:52;;;;;;;41.63;15.45;;;17.40;99.90;;;;;;5076751;28;20075;-75
2022/06/12 03:17:21;;;;;;;32.10;14.13;;;17.50;99.90;;;;;;5075317;28;20045;-76
2022/06/12 03:19:53;;;;;;;35.42;14.07;;;17.60;99.90;;;;;;5080977;28;20127;-76
2022/06/12 03:22:32;;;;;;;25.13;14.77;;;17.60;99.90;;;;;;5101766;28;20087;-76
2022/06/12 03:25:10;;;;;;;27.48;14.35;;;17.70;99.90;;;;;;5076628;28;20072;-76
2022/06/12 03:27:48;;;;;;;27.63;14.63;;;17.80;99.90;;;;;;5074285;28;20094;-76
2022/06/12 03:30:22;;;;;;;20.63;13.63;;;17.90;99.90;;;;;;5074636;28;20056;-76
2022/06/12 03:33:00;;;;;;;24.05;13.88;;;18.00;99.90;;;;;;5072088;28;20059;-76
2022/06/12 03:35:37;;;;;;;18.98;12.50;;;18.10;99.90;;;;;;5070939;28;20482;-76
2022/06/12 03:38:11;;;;;;;15.98;11.43;;;18.20;99.90;;;;;;5086793;28;20097;-76
2022/06/12 03:40:51;;;;;;;13.82;11.20;;;18.30;99.90;;;;;;5080325;28;20044;-76
2022/06/12 03:43:27;;;;;;;13.80;11.20;;;18.30;99.90;;;;;;5081006;28;20586;-75
2022/06/12 03:46:04;;;;;;;16.08;10.18;;;18.40;99.90;;;;;;5075543;28;20102;-75
2022/06/12 03:48:38;;;;;;;14.98;10.93;;;18.40;99.90;;;;;;5081859;28;20470;-75
2022/06/12 03:51:15;;;;;;;14.60;10.63;;;18.50;99.90;;;;;;5053683;28;20479;-76
2022/06/12 03:53:48;;;;;;;11.82;9.90;;;18.50;99.90;;;;;;5073853;28;20577;-76
2022/06/12 03:59:16;;;;;;;15.35;11.10;;;18.70;99.90;;;;;;5089167;28;20054;-76
2022/06/12 04:01:45;;;;;;;12.77;10.63;;;18.80;99.90;;;;;;5088713;28;20543;-75
2022/06/12 04:04:16;;;;;;;13.40;9.45;;;18.80;99.90;;;;;;5080995;28;20525;-76
2022/06/12 04:06:45;;;;;;;12.52;8.98;;;18.90;99.90;;;;;;5077305;28;20539;-77
2022/06/12 04:09:16;;;;;;;11.93;9.43;;;19.00;99.90;;;;;;5071551;28;20094;-76
2022/06/12 04:11:54;;;;;;;11.18;9.60;;;19.10;99.90;;;;;;5067826;28;20052;-76
2022/06/12 04:14:26;;;;;;;10.95;9.13;;;19.30;99.90;;;;;;5083144;28;20059;-76
2022/06/12 04:16:57;;;;;;;11.80;9.52;;;19.50;99.90;;;;;;5083959;28;20138;-76
2022/06/12 04:19:28;;;;;;;10.90;9.30;;;19.80;99.90;;;;;;5078625;28;20049;-76
2022/06/12 04:22:02;;;;;;;10.48;8.38;;;19.90;99.90;;;;;;5070479;28;20058;-76
2022/06/12 04:24:39;;;;;;;8.45;7.03;;;20.00;99.90;;;;;;5071669;28;20143;-76
2022/06/12 04:27:13;;;;;;;9.93;8.20;;;20.10;99.90;;;;;;5086081;28;20052;-76
2022/06/12 04:29:50;;;;;;;11.65;7.25;;;20.10;99.90;;;;;;5029134;28;1328219;-76
2022/06/12 04:32:18;;;;;;;10.90;7.00;;;20.10;99.90;;;;;;5072995;28;20072;-76
2022/06/12 04:34:47;;;;;;;8.32;7.45;;;20.10;99.90;;;;;;5079385;28;20040;-76
2022/06/12 04:37:17;;;;;;;7.43;6.65;;;20.10;99.90;;;;;;5086032;28;20044;-76
2022/06/12 04:39:45;;;;;;;7.65;6.47;;;20.10;99.90;;;;;;5090482;28;20044;-76
2022/06/12 04:42:14;;;;;;;7.68;5.72;;;20.00;99.90;;;;;;5090496;28;20052;-76
2022/06/12 04:44:42;;;;;;;7.38;6.10;;;20.00;99.90;;;;;;5080496;28;20211;-76
2022/06/12 04:47:13;;;;;;;8.25;6.40;;;20.10;99.90;;;;;;5082735;28;20108;-76
2022/06/12 04:49:41;;;;;;;9.27;6.47;;;20.10;99.90;;;;;;5085607;28;20044;-76
2022/06/12 04:52:13;;;;;;;9.65;6.70;;;20.20;99.90;;;;;;5078413;28;20045;-76
2022/06/12 04:54:43;;;;;;;8.55;6.25;;;20.50;99.90;;;;;;5078210;28;20050;-79
2022/06/12 04:57:13;;;;;;;8.88;5.90;;;20.70;99.90;;;;;;5090799;28;20072;-78
2022/06/12 04:59:41;;;;;;;6.30;5.70;;;21.00;99.90;;;;;;5091865;28;20055;-79
2022/06/12 05:02:08;;;;;;;7.80;6.75;;;21.30;99.90;;;;;;5089148;28;20055;-79
2022/06/12 05:04:36;;;;;;;6.85;6.15;;;21.50;99.90;;;;;;5092044;28;20052;-79
2022/06/12 05:07:04;;;;;;;7.70;5.70;;;21.70;99.90;;;;;;5086818;28;20082;-79
2022/06/12 05:09:36;;;;;;;8.50;5.70;;;21.80;99.90;;;;;;5071853;28;20040;-79
2022/06/12 05:12:04;;;;;;;7.47;6.10;;;22.00;99.90;;;;;;5079279;28;20307;-80
2022/06/12 05:14:31;;;;;;;9.57;5.68;;;22.10;99.90;;;;;;5091631;28;20040;-80
2022/06/12 05:17:01;;;;;;;9.25;6.00;;;22.10;99.90;;;;;;5090217;28;20078;-79
2022/06/12 05:19:31;;;;;;;6.40;5.78;;;22.00;99.90;;;;;;5090031;28;20055;-80
2022/06/12 05:22:00;;;;;;;11.68;10.48;;;22.00;99.90;;;;;;5062196;28;20470;-79
2022/06/12 05:24:28;;;;;;;6.93;6.30;;;22.00;99.90;;;;;;5070055;28;20052;-80
2022/06/12 05:26:57;;;;;;;7.53;5.80;;;21.90;99.90;;;;;;5070143;28;20044;-80
2022/06/12 05:29:27;;;;;;;11.38;6.60;;;21.90;99.90;;;;;;5086603;28;20629;-79
2022/06/12 05:31:57;;;;;;;7.47;6.68;;;21.90;99.90;;;;;;5089752;28;20063;-80
2022/06/12 05:34:26;;;;;;;7.75;5.97;;;21.70;99.90;;;;;;5073704;28;20079;-79
2022/06/12 05:36:55;;;;;;;7.22;6.03;;;21.60;99.90;;;;;;5090214;28;20044;-77
2022/06/12 05:39:23;;;;;;;7.38;5.82;;;21.50;99.90;;;;;;5085512;28;20542;-77
2022/06/12 05:41:51;;;;;;;9.75;8.48;;;21.50;99.90;;;;;;5078355;28;20087;-77
2022/06/12 05:44:21;;;;;;;6.78;5.80;;;21.50;99.90;;;;;;5073715;28;20541;-77
2022/06/12 05:46:48;;;;;;;6.10;5.57;;;21.60;99.90;;;;;;5074555;28;20480;-77
2022/06/12 05:49:16;;;;;;;8.07;7.28;;;21.60;99.90;;;;;;5079267;28;20131;-77
2022/06/12 05:51:44;;;;;;;7.82;6.63;;;21.70;99.90;;;;;;5071088;28;20075;-77
2022/06/12 05:54:11;;;;;;;6.95;6.20;;;21.70;99.90;;;;;;5081359;28;20051;-77
2022/06/12 05:56:40;;;;;;;7.30;6.63;;;21.80;99.90;;;;;;5084465;28;20060;-77
2022/06/12 05:59:07;;;;;;;8.80;6.88;;;22.00;99.90;;;;;;5076707;28;20083;-77
2022/06/12 06:01:39;;;;;;;10.38;6.50;;;22.10;99.90;;;;;;5068711;28;20048;-77
2022/06/12 06:04:07;;;;;;;8.43;7.10;;;22.30;99.90;;;;;;5068768;28;20110;-77
2022/06/12 06:06:38;;;;;;;7.55;6.60;;;22.40;99.90;;;;;;5070478;28;20551;-77
2022/06/12 06:09:07;;;;;;;8.63;7.22;;;22.50;99.90;;;;;;5088973;28;20504;-77
2022/06/12 06:11:34;;;;;;;8.50;6.15;;;22.50;99.90;;;;;;5072154;28;20062;-77
2022/06/12 06:14:01;;;;;;;9.90;6.45;;;22.50;99.90;;;;;;5090525;28;20708;-78
2022/06/12 06:16:30;;;;;;;8.15;7.35;;;22.50;99.90;;;;;;5089147;28;20109;-81
2022/06/12 06:19:01;;;;;;;13.98;7.03;;;22.50;99.90;;;;;;5091558;28;20423;-84
2022/06/12 06:21:29;;;;;;;8.25;5.18;;;22.50;99.90;;;;;;5080633;28;20097;-81
2022/06/12 06:23:57;;;;;;;5.68;5.18;;;22.50;99.90;;;;;;5058412;28;20045;-82
2022/06/12 06:26:24;;;;;;;6.30;5.70;;;22.90;99.90;;;;;;5068263;28;20054;-81
2022/06/12 06:28:56;;;;;;;5.80;5.30;;;23.80;99.90;;;;;;5077994;28;20051;-80
2022/06/12 06:31:25;;;;;;;7.30;5.28;;;24.80;99.90;;;;;;5078388;28;20490;-82
2022/06/12 06:33:54;;;;;;;13.88;12.32;;;25.70;99.90;;;;;;5089357;28;20040;-82
2022/06/12 06:36:23;;;;;;;6.38;5.78;;;26.50;99.90;;;;;;5081331;28;20143;-83
2022/06/12 06:38:52;;;;;;;13.95;6.75;;;27.10;99.90;;;;;;5075718;28;20052;-82
2022/06/12 06:41:20;;;;;;;7.68;6.70;;;27.70;96.90;;;;;;5085093;28;20117;-80
2022/06/12 06:46:32;;;;;;;7.25;5.80;;;28.50;90.20;;;;;;5063855;28;20044;-82
2022/06/12 06:49:00;;;;;;;6.07;5.65;;;28.80;86.30;;;;;;5090475;28;20446;-82
2022/06/12 06:51:29;;;;;;;6.78;5.07;;;29.30;82.00;;;;;;5084859;28;20048;-82
2022/06/12 06:53:58;;;;;;;5.55;5.13;;;29.60;78.30;;;;;;5071976;28;20106;-80
2022/06/12 06:56:25;;;;;;;5.50;4.47;;;29.90;77.70;;;;;;5060937;28;20076;-83
2022/06/12 06:58:53;;;;;;;5.30;4.90;;;30.00;75.50;;;;;;5069007;28;20055;-83
2022/06/12 07:01:21;;;;;;;4.32;4.00;;;30.10;72.80;;;;;;5074738;28;20064;-83
2022/06/12 07:03:48;;;;;;;4.05;3.65;;;30.30;70.60;;;;;;5080928;28;20044;-83
2022/06/12 07:06:17;;;;;;;3.65;3.33;;;30.60;68.60;;;;;;5082306;28;20056;-80
2022/06/12 07:08:46;;;;;;;6.57;3.78;;;31.00;66.20;;;;;;5084948;28;20500;-79
2022/06/12 07:11:13;;;;;;;6.68;3.60;;;31.10;64.90;;;;;;5089817;28;20036;-78
2022/06/12 07:13:40;;;;;;;3.75;3.45;;;31.20;63.70;;;;;;5071649;28;20148;-79
2022/06/12 07:16:08;;;;;;;3.75;3.55;;;31.20;65.20;;;;;;5066417;28;20416;-82
2022/06/12 07:18:35;;;;;;;5.35;3.85;;;31.20;63.70;;;;;;5088853;28;20413;-82
2022/06/12 07:21:03;;;;;;;5.70;3.85;;;31.40;64.10;;;;;;5088685;28;20508;-79
2022/06/12 07:23:34;;;;;;;4.60;4.28;;;31.10;63.00;;;;;;5092073;28;20138;-83
2022/06/12 07:26:08;;;;;;;4.35;3.83;;;30.80;63.90;;;;;;5092263;28;20138;-82
2022/06/12 07:28:38;;;;;;;4.75;4.35;;;30.40;64.90;;;;;;5092227;28;20412;-82
2022/06/12 07:31:08;;;;;;;4.47;4.18;;;30.20;66.80;;;;;;5087539;28;20106;-81
2022/06/12 07:33:37;;;;;;;5.95;4.30;;;30.10;66.80;;;;;;5089648;28;20048;-81
2022/06/12 07:36:05;;;;;;;4.82;3.20;;;29.80;66.20;;;;;;5087510;28;20539;-82
2022/06/12 07:38:33;;;;;;;3.55;3.13;;;29.50;66.20;;;;;;5089886;28;20131;-81
2022/06/12 07:41:05;;;;;;;4.75;4.35;;;29.30;67.00;;;;;;5078287;28;20133;-81
2022/06/12 07:43:34;;;;;;;;;;;29.00;67.90;;;;;;5051610;28;20523;-80
2022/06/12 07:46:03;;;;;;;5.55;3.55;;;28.60;69.90;;;;;;5069503;28;19967;-81
2022/06/12 07:48:31;;;;;;;7.70;3.30;;;28.20;72.60;;;;;;5073227;28;20051;-81
2022/06/12 07:51:00;;;;;;;4.15;2.65;;;27.80;74.40;;;;;;5090131;28;20217;-81
2022/06/12 07:53:28;;;;;;;4.10;2.65;;;27.40;75.20;;;;;;5093133;28;20503;-81
2022/06/12 07:55:55;;;;;;;3.53;2.63;;;26.90;77.20;;;;;;5075518;28;20047;-81
2022/06/12 07:58:24;;;;;;;6.28;2.60;;;26.40;77.60;;;;;;5089353;28;20050;-81
2022/06/12 08:00:52;;;;;;;2.42;2.28;;;25.90;78.30;;;;;;5075603;28;20528;-81
2022/06/12 08:03:19;;;;;;;6.57;2.85;;;25.60;79.70;;;;;;5079265;28;20052;-81
2022/06/12 08:05:47;;;;;;;3.30;2.42;;;25.30;82.80;;;;;;5092406;28;20051;-80
2022/06/12 08:08:14;;;;;;;10.20;3.30;;;24.90;84.10;;;;;;5079683;28;20504;-79
2022/06/12 08:10:42;;;;;;;6.07;2.53;;;24.70;86.50;;;;;;5072721;28;20045;-78
2022/06/12 08:13:11;;;;;;;2.85;2.50;;;24.50;88.00;;;;;;5069046;28;20514;-80
2022/06/12 08:15:44;;;;;;;2.33;2.13;;;24.30;89.60;;;;;;5071200;28;20064;-79
2022/06/12 08:18:13;;;;;;;2.00;1.90;;;24.10;90.50;;;;;;5086750;28;20496;-78
2022/06/12 08:20:45;;;;;;;4.80;2.38;;;24.00;90.90;;;;;;5092369;28;20040;-77
2022/06/12 08:23:27;;;;;;;5.10;2.58;;;23.90;92.20;;;;;;5092907;28;20047;-81
2022/06/12 08:25:55;;;;;;;3.55;2.70;;;23.80;91.90;;;;;;5089894;28;20062;-81
2022/06/12 08:28:23;;;;;;;7.57;2.67;;;23.90;92.30;;;;;;5070493;28;20040;-81
2022/06/12 08:30:52;;;;;;;5.45;2.85;;;23.90;93.20;;;;;;5091262;28;20432;-82
2022/06/12 08:33:19;;;;;;;3.03;2.70;;;24.10;92.80;;;;;;5086706;28;20052;-81
2022/06/12 08:35:47;;;;;;;4.70;2.92;;;24.10;94.10;;;;;;5074756;28;20044;-80
2022/06/12 08:38:15;;;;;;;4.05;2.60;;;24.10;95.20;;;;;;5076318;28;20524;-80
2022/06/12 08:40:51;;;;;;;2.80;2.60;;;24.20;95.00;;;;;;5061485;28;20032;-80
2022/06/12 08:43:31;;;;;;;3.13;2.83;;;24.10;94.90;;;;;;5086505;28;20510;-79
2022/06/12 08:46:05;;;;;;;4.28;2.67;;;24.10;95.80;;;;;;5090242;28;20454;-81
2022/06/12 08:48:42;;;;;;;3.08;2.80;;;24.10;96.70;;;;;;5092675;28;20055;-80
2022/06/12 08:51:14;;;;;;;2.83;2.63;;;24.30;97.80;;;;;;5091972;28;20567;-83
2022/06/12 08:53:47;;;;;;;3.58;3.28;;;24.80;97.40;;;;;;5089033;28;20840;-81
2022/06/12 08:56:20;;;;;;;5.55;4.50;;;25.60;98.50;;;;;;5092131;28;20048;-81
2022/06/12 08:58:53;;;;;;;3.92;3.63;;;26.50;94.70;;;;;;5082085;28;20052;-80
2022/06/12 09:01:21;;;;;;;4.10;3.50;;;27.30;92.60;;;;;;5076733;28;20528;-81
2022/06/12 09:03:51;;;;;;;5.05;2.80;;;28.40;88.60;;;;;;5072526;28;20049;-79
2022/06/12 09:06:35;;;;;;;3.88;2.65;;;28.60;84.10;;;;;;5089820;28;20573;-80
2022/06/12 09:09:08;;;;;;;3.13;2.35;;;28.30;79.60;;;;;;5079556;28;20135;-79
2022/06/12 09:11:41;;;;;;;2.85;2.20;;;28.00;79.40;;;;;;5074640;28;20052;-81
2022/06/12 09:14:32;;;;;;;2.53;2.33;;;28.10;79.90;;;;;;5087023;28;20048;-79
2022/06/12 09:17:16;;;;;;;2.90;2.40;;;28.50;79.40;;;;;;5083168;28;20495;-79
2022/06/12 09:19:53;;;;;;;3.83;2.75;;;29.30;76.40;;;;;;5085785;28;20129;-82
2022/06/12 09:22:26;;;;;;;4.05;2.15;;;30.80;73.20;;;;;;5079939;28;20131;-82
2022/06/12 09:25:03;;;;;;;3.60;2.25;;;32.10;66.50;;;;;;5080201;28;20072;-81
2022/06/12 09:27:39;;;;;;;3.10;2.20;;;32.70;62.20;;;;;;5062271;28;20101;-81
2022/06/12 09:30:10;;;;;;;4.13;2.30;;;33.40;58.80;;;;;;5086253;28;20055;-81
2022/06/12 09:32:49;;;;;;;2.45;2.25;;;34.00;56.50;;;;;;5086900;28;20052;-82
2022/06/12 09:35:32;;;;;;;3.83;2.28;;;34.20;55.20;;;;;;5079693;28;20579;-78
2022/06/12 09:38:22;;;;;;;2.78;2.58;;;34.30;55.00;;;;;;5089997;28;20048;-79
2022/06/12 09:41:13;;;;;;;6.32;2.20;;;34.30;56.00;;;;;;5090071;28;20051;-81
2022/06/12 09:43:51;;;;;;;3.22;2.08;;;34.70;53.20;;;;;;5090131;28;20412;-80
2022/06/12 09:46:34;;;;;;;3.53;2.15;;;34.90;51.20;;;;;;5068307;28;20052;-80
2022/06/12 09:49:19;;;;;;;7.97;2.30;;;35.20;51.80;;;;;;5073776;28;20568;-79
2022/06/12 09:52:03;;;;;;;6.03;1.70;;;35.40;49.60;;;;;;5077572;28;20044;-79
2022/06/12 09:54:45;;;;;;;4.88;1.70;;;35.30;47.00;;;;;;5091242;28;20115;-79
2022/06/12 09:57:18;;;;;;;3.75;1.60;;;34.70;47.50;;;;;;5081990;28;20117;-78
2022/06/12 09:59:53;;;;;;;4.38;2.70;;;34.30;48.60;;;;;;5087331;28;20036;-80
2022/06/12 10:02:25;;;;;;;2.22;2.08;;;34.70;48.30;;;;;;5083223;28;20075;-81
2022/06/12 10:05:02;;;;;;;4.07;1.67;;;35.00;47.20;;;;;;5077048;28;20044;-79
2022/06/12 10:07:34;;;;;;;1.58;1.25;;;35.40;45.90;;;;;;5075217;28;20044;-80
2022/06/12 10:10:08;;;;;;;3.08;1.20;;;35.80;44.60;;;;;;5070151;28;20143;-80
2022/06/12 10:12:40;;;;;;;1.52;1.40;;;36.00;45.20;;;;;;5082385;28;20114;-80
2022/06/12 10:15:14;;;;;;;3.28;1.92;;;36.30;47.30;;;;;;5070896;28;20546;-82
2022/06/12 10:17:46;;;;;;;5.00;1.58;;;35.60;47.90;;;;;;5075150;28;20054;-80
2022/06/12 10:20:20;;;;;;;4.15;2.00;;;35.00;48.30;;;;;;5069412;28;20476;-80
2022/06/12 10:22:49;;;;;;;4.40;1.75;;;35.00;48.10;;;;;;5086462;28;20054;-82
2022/06/12 10:25:21;;;;;;;4.78;2.15;;;34.70;48.50;;;;;;5071756;28;20060;-82
2022/06/12 10:27:50;;;;;;;;;;;33.70;50.10;;;;;;5082486;28;20055;-82
2022/06/12 10:30:29;;;;;;;3.65;1.90;;;33.30;50.90;;;;;;5090635;28;20376;-80
2022/06/12 10:32:58;;;;;;;6.95;2.22;;;33.50;52.30;;;;;;5087905;28;20052;-81
2022/06/12 10:35:27;;;;;;;3.55;2.40;;;33.80;51.30;;;;;;5089004;28;20056;-85
2022/06/12 10:38:08;;;;;;;7.38;2.33;;;34.60;50.90;;;;;;5087516;28;20143;-82
2022/06/12 10:40:35;;;;;;;2.53;1.88;;;35.50;50.20;;;;;;5088518;28;20062;-79
2022/06/12 10:43:05;;;;;;;2.58;2.33;;;36.20;49.60;;;;;;5077049;28;20114;-78
2022/06/12 10:45:36;;;;;;;5.50;3.17;;;36.70;48.60;;;;;;5083642;28;20044;-78
2022/06/12 10:48:20;;;;;;;5.13;2.80;;;37.00;47.20;;;;;;5072316;28;20048;-78
2022/06/12 10:50:54;;;;;;;3.05;2.60;;;37.20;47.20;;;;;;5069404;28;20452;-77
2022/06/12 10:53:27;;;;;;;7.10;2.75;;;37.40;46.10;;;;;;5052274;28;20056;-77
2022/06/12 10:56:03;;;;;;;3.85;2.10;;;37.80;46.60;;;;;;5077631;28;20052;-80
2022/06/12 10:59:12;;;;;;;3.47;2.30;;;37.90;46.60;;;;;;5077620;28;20048;-80
2022/06/12 11:01:50;;;;;;;4.68;2.10;;;38.10;45.50;;;;;;5079866;28;20040;-81
2022/06/12 11:04:30;;;;;;;3.13;1.77;;;37.90;45.30;;;;;;5084974;28;20044;-81
2022/06/12 11:07:13;;;;;;;3.88;2.05;;;37.30;45.70;;;;;;5075251;28;20129;-83
2022/06/12 11:10:03;;;;;;;3.25;2.25;;;37.20;46.80;;;;;;5076916;28;20056;-83
2022/06/12 11:12:54;;;;;;;3.85;2.17;;;36.90;46.80;;;;;;5074648;28;20048;-82
2022/06/12 11:15:55;;;;;;;4.80;2.30;;;36.10;47.30;;;;;;5080211;28;20138;-81
2022/06/12 11:18:28;;;;;;;4.00;2.08;;;34.90;48.20;;;;;;5090847;28;20093;-81
2022/06/12 11:21:04;;;;;;;4.07;2.10;;;33.10;50.30;;;;;;5092343;28;20079;-81
2022/06/12 11:24:01;;;;;;;3.28;2.08;;;31.70;52.40;;;;;;5078852;28;20510;-82
2022/06/12 11:27:04;;;;;;;3.35;2.42;;;30.50;54.20;;;;;;5071372;28;20500;-80
2022/06/12 11:29:53;;;;;;;3.42;2.17;;;29.60;56.20;;;;;;5066347;28;20425;-81
2022/06/12 11:32:33;;;;;;;2.35;1.90;;;28.90;58.60;;;;;;5088881;28;20060;-81
2022/06/12 11:35:15;;;;;;;3.88;2.13;;;28.30;58.70;;;;;;5064116;28;20516;-80
2022/06/12 11:37:56;;;;;;;4.63;2.80;;;27.80;59.70;;;;;;5082390;28;20047;-81
2022/06/12 11:40:34;;;;;;;4.07;2.58;;;27.50;60.60;;;;;;5072218;28;20057;-80
2022/06/12 11:43:10;;;;;;;3.75;2.28;;;27.40;62.70;;;;;;5086616;28;20055;-80
2022/06/12 11:45:50;;;;;;;3.53;2.58;;;27.70;61.50;;;;;;5090669;28;20063;-81
2022/06/12 11:48:48;;;;;;;7.60;2.83;;;28.50;60.80;;;;;;5092034;28;20584;-78
2022/06/12 11:54:54;;;;;;;7.47;2.50;;;28.80;59.60;;;;;;5087818;27;1405248;-78
2022/06/12 11:57:28;;;;;;;3.22;2.13;;;28.20;60.10;;;;;;5110100;28;20074;-78
2022/06/12 12:00:06;;;;;;;5.63;1.85;;;27.80;61.90;;;;;;5126866;27;20503;-78
2022/06/12 12:02:50;;;;;;;3.80;2.15;;;27.40;62.50;;;;;;5129038;28;20380;-78
2022/06/12 12:05:35;;;;;;;4.03;1.90;;;27.00;61.60;;;;;;5129457;28;20396;-78
2022/06/12 12:08:17;;;;;;;4.38;2.30;;;26.60;62.30;;;;;;5128707;28;20051;-78
2022/06/12 12:10:51;;;;;;;3.58;2.28;;;26.60;63.20;;;;;;5127099;28;20050;-78
2022/06/12 12:13:21;;;;;;;2.47;1.92;;;26.80;63.60;;;;;;5126465;28;20047;-79
2022/06/12 12:15:51;;;;;;;7.57;5.60;;;26.90;62.90;;;;;;5118799;28;20528;-78
2022/06/12 12:18:32;;;;;;;3.85;1.95;;;26.90;62.90;;;;;;5113423;28;20051;-78
2022/06/12 12:21:02;;;;;;;5.15;2.25;;;26.80;63.40;;;;;;5096551;28;20048;-78
2022/06/12 12:23:34;;;;;;;2.67;1.83;;;27.20;63.70;;;;;;5108251;28;20051;-79
2022/06/12 12:26:05;;;;;;;;;;;28.70;62.10;;;;;;5128871;28;20133;-79
2022/06/12 12:28:36;;;;;;;2.88;1.75;;;30.00;59.30;;;;;;5124168;27;19930;-79
2022/06/12 12:31:06;;;;;;;2.60;1.77;;;31.20;55.70;;;;;;5127406;28;20047;-79
2022/06/12 12:33:34;;;;;;;4.45;2.00;;;32.80;53.70;;;;;;5101387;28;20443;-76
2022/06/12 12:41:46;;;;;;;1.88;1.50;;;36.30;46.40;;;;;;5095968;28;20150;-78
2022/06/12 12:44:16;;;;;;;3.17;1.75;;;36.60;45.10;;;;;;5117577;27;20085;-77
2022/06/12 12:46:47;;;;;;;5.20;1.73;;;36.20;45.90;;;;;;5096807;28;20039;-80
2022/06/12 12:49:23;;;;;;;11.60;2.43;;;34.90;46.80;;;;;;5099498;28;20039;-80
2022/06/12 12:51:51;;;;;;;3.00;2.13;;;33.30;48.30;;;;;;5118616;28;20109;-81
2022/06/12 12:54:21;;;;;;;2.38;1.83;;;31.70;50.70;;;;;;5079904;28;20573;-79
2022/06/12 12:57:01;;;;;;;5.05;2.95;;;30.60;52.40;;;;;;5116664;28;20046;-80
2022/06/12 12:59:40;;;;;;;3.97;1.50;;;29.60;53.80;;;;;;5081524;28;20541;-79
2022/06/12 13:02:25;;;;;;;10.50;2.30;;;29.60;55.20;;;;;;5122915;28;20087;-79
2022/06/12 13:04:56;;;;;;;5.97;2.42;;;31.80;52.20;;;;;;5111715;27;20055;-80
2022/06/12 13:07:42;;;;;;;2.42;1.80;;;32.90;50.70;;;;;;5067907;28;20043;-80
2022/06/12 13:10:44;;;;;;;5.85;1.70;;;32.90;48.80;;;;;;5101404;28;20105;-81
2022/06/12 13:13:33;;;;;;;5.65;1.27;;;32.70;49.30;;;;;;5084575;28;20472;-80
2022/06/12 13:16:09;;;;;;;4.28;2.38;;;32.50;48.80;;;;;;5103307;28;20215;-82
2022/06/12 13:18:51;;;;;;;1.58;1.40;;;33.10;49.00;;;;;;5073211;28;20044;-77
2022/06/12 13:21:24;;;;;;;5.40;1.83;;;34.00;47.00;;;;;;5069859;28;20051;-77
2022/06/12 13:24:15;;;;;;;6.78;1.90;;;34.30;47.20;;;;;;5103672;28;20039;-77
2022/06/12 13:26:45;;;;;;;3.17;1.30;;;34.30;45.70;;;;;;5107262;28;20136;-77
2022/06/12 13:29:20;;;;;;;4.07;2.80;;;33.70;46.70;;;;;;5094644;28;20050;-78
2022/06/12 13:31:58;;;;;;;3.13;0.98;;;33.90;45.00;;;;;;5091254;28;20433;-79
2022/06/12 13:34:26;;;;;;;1.67;1.40;;;33.80;45.60;;;;;;5092249;28;20058;-78